Terminal Aerodrome Forecast
Issued by NWS

Home | Current Version | Previous Version | Text Only | Print | Product List | Glossary On
Versions: 1 2 3 4 5 6 7 8 9 10 11 12 13 14 15
000
FTUS45 KTFX 170520
TAFGTF
TAF
KGTF 170520Z 1706/1806 21008KT P6SM FEW130
      TEMPO 1711/1715 BKN130
     FM171800 22020G30KT P6SM FEW100 FEW250
     FM172200 23018G28KT P6SM BKN090 BKN200=

USA.gov is the U.S. government's official web portal to all federal, state and local government web resources and services.